Remmel, Arkansas
Current Conditions -  °F | °C
As of 11:45 PM on Wednesday 17 Dec 2014 (Local Time) from KM19 Reporting Station
Light Rain Light Rain  
Wind Chill: 33°   Ceiling: 7500
Heat Index: 37°   Visibility: 7mi
Dew Point: 36°   Wind: 6mph
Humidity: 93%   Direction: 10°N
Pressure: 30.32"   Gusts: NA
Location:  35.5678°N, 91.2073°W
Report Text: KM19 180545Z AUTO 01005KT 7SM -RA FEW008 OVC075 03/02 A3032 RMK AO2 UPB00E14B44E45SNB31E44 P0006
Loading
Personal Weather Stations






























Interactive Weather Map New forecast layout! Learn more

10-Day Weather Forecast

Advertisements
Track Severe Weather on mobile